sensor_id;sensor_type;location;lat;lon;timestamp;pressure;altitude;pressure_sealevel;temperature;humidity
36190;BME280;22232;50.914;13.858;2023-03-18T00:00:34;97423.13;;;5.85;57.48
36190;BME280;22232;50.914;13.858;2023-03-18T00:03:01;97421.28;;;5.86;57.74
36190;BME280;22232;50.914;13.858;2023-03-18T00:05:29;97425.19;;;5.77;58.96
36190;BME280;22232;50.914;13.858;2023-03-18T00:07:57;97423.34;;;5.77;57.36
36190;BME280;22232;50.914;13.858;2023-03-18T00:10:25;97418.44;;;5.81;58.03
36190;BME280;22232;50.914;13.858;2023-03-18T00:12:52;97425.63;;;5.67;59.04
36190;BME280;22232;50.914;13.858;2023-03-18T00:15:20;97420.13;;;5.68;58.45
36190;BME280;22232;50.914;13.858;2023-03-18T00:17:48;97418.91;;;5.71;59.55
36190;BME280;22232;50.914;13.858;2023-03-18T00:20:17;97419.72;;;5.71;58.65
36190;BME280;22232;50.914;13.858;2023-03-18T00:22:44;97415.81;;;5.81;57.98
36190;BME280;22232;50.914;13.858;2023-03-18T00:25:13;97414.41;;;5.71;58.91
36190;BME280;22232;50.914;13.858;2023-03-18T00:27:41;97423.38;;;5.70;59.65
36190;BME280;22232;50.914;13.858;2023-03-18T00:30:09;97428.25;;;5.73;58.74
36190;BME280;22232;50.914;13.858;2023-03-18T00:32:39;97439.06;;;5.65;59.73
36190;BME280;22232;50.914;13.858;2023-03-18T00:35:08;97418.88;;;5.78;58.32
36190;BME280;22232;50.914;13.858;2023-03-18T00:37:35;97420.72;;;5.70;59.08
36190;BME280;22232;50.914;13.858;2023-03-18T00:40:06;97421.75;;;5.76;59.34
36190;BME280;22232;50.914;13.858;2023-03-18T00:42:36;97427.63;;;5.85;57.61
36190;BME280;22232;50.914;13.858;2023-03-18T00:45:07;97424.75;;;5.86;57.42
36190;BME280;22232;50.914;13.858;2023-03-18T00:47:36;97414.97;;;5.87;58.89
36190;BME280;22232;50.914;13.858;2023-03-18T00:50:06;97423.13;;;5.85;57.68
36190;BME280;22232;50.914;13.858;2023-03-18T00:52:35;97404.63;;;5.79;58.44
36190;BME280;22232;50.914;13.858;2023-03-18T00:55:03;97408.06;;;5.86;59.08
36190;BME280;22232;50.914;13.858;2023-03-18T00:57:31;97402.75;;;5.86;57.96
36190;BME280;22232;50.914;13.858;2023-03-18T00:59:59;97400.13;;;5.86;58.66
36190;BME280;22232;50.914;13.858;2023-03-18T01:02:28;97404.78;;;5.90;58.99
36190;BME280;22232;50.914;13.858;2023-03-18T01:04:56;97401.72;;;5.87;59.21
36190;BME280;22232;50.914;13.858;2023-03-18T01:07:24;97410.31;;;5.82;59.31
36190;BME280;22232;50.914;13.858;2023-03-18T01:09:51;97401.97;;;5.85;58.13
36190;BME280;22232;50.914;13.858;2023-03-18T01:12:22;97397.06;;;5.89;57.58
36190;BME280;22232;50.914;13.858;2023-03-18T01:14:51;97409.25;;;5.90;58.05
36190;BME280;22232;50.914;13.858;2023-03-18T01:17:19;97402.34;;;5.89;57.83
36190;BME280;22232;50.914;13.858;2023-03-18T01:19:47;97392.78;;;5.88;58.42
36190;BME280;22232;50.914;13.858;2023-03-18T01:22:15;97394.59;;;5.87;59.21
36190;BME280;22232;50.914;13.858;2023-03-18T01:24:46;97392.78;;;5.81;58.30
36190;BME280;22232;50.914;13.858;2023-03-18T01:27:16;97405.88;;;5.76;57.66
36190;BME280;22232;50.914;13.858;2023-03-18T01:29:46;97399.34;;;5.79;57.47
36190;BME280;22232;50.914;13.858;2023-03-18T01:32:19;97394.44;;;5.82;58.94
36190;BME280;22232;50.914;13.858;2023-03-18T01:34:48;97387.75;;;5.73;58.73
36190;BME280;22232;50.914;13.858;2023-03-18T01:37:15;97389.75;;;5.78;57.35
36190;BME280;22232;50.914;13.858;2023-03-18T01:39:47;97381.19;;;5.82;57.13
36190;BME280;22232;50.914;13.858;2023-03-18T01:42:20;97391.78;;;5.82;57.92
36190;BME280;22232;50.914;13.858;2023-03-18T01:44:49;97394.44;;;5.82;58.22
36190;BME280;22232;50.914;13.858;2023-03-18T01:47:17;97388.34;;;5.82;58.91
36190;BME280;22232;50.914;13.858;2023-03-18T01:49:52;97391.25;;;5.67;58.96
36190;BME280;22232;50.914;13.858;2023-03-18T01:52:26;97384.06;;;5.74;58.65
36190;BME280;22232;50.914;13.858;2023-03-18T01:55:03;97382.69;;;5.65;57.92
36190;BME280;22232;50.914;13.858;2023-03-18T01:57:33;97390.03;;;5.63;58.77
36190;BME280;22232;50.914;13.858;2023-03-18T02:00:03;97386.16;;;5.65;59.67
36190;BME280;22232;50.914;13.858;2023-03-18T02:02:40;97393.50;;;5.63;58.49
36190;BME280;22232;50.914;13.858;2023-03-18T02:05:13;97393.88;;;5.67;57.83
36190;BME280;22232;50.914;13.858;2023-03-18T02:07:42;97379.88;;;5.53;59.31
36190;BME280;22232;50.914;13.858;2023-03-18T02:10:14;97383.53;;;5.59;59.33
36190;BME280;22232;50.914;13.858;2023-03-18T02:12:48;97380.88;;;5.59;58.45
36190;BME280;22232;50.914;13.858;2023-03-18T02:15:26;97380.72;;;5.47;58.99
36190;BME280;22232;50.914;13.858;2023-03-18T02:18:01;97389.47;;;5.41;60.50
36190;BME280;22232;50.914;13.858;2023-03-18T02:23:27;97388.69;;;5.40;59.51
36190;BME280;22232;50.914;13.858;2023-03-18T02:26:09;97392.72;;;5.49;60.73
36190;BME280;22232;50.914;13.858;2023-03-18T02:28:40;97391.91;;;5.49;60.23
36190;BME280;22232;50.914;13.858;2023-03-18T02:31:10;97390.91;;;5.43;61.24
36190;BME280;22232;50.914;13.858;2023-03-18T02:33:41;97394.38;;;5.37;61.87
36190;BME280;22232;50.914;13.858;2023-03-18T02:36:19;97398.44;;;5.40;60.94
36190;BME280;22232;50.914;13.858;2023-03-18T02:38:48;97388.06;;;5.38;62.92
36190;BME280;22232;50.914;13.858;2023-03-18T02:41:25;97391.53;;;5.39;61.32
36190;BME280;22232;50.914;13.858;2023-03-18T02:43:53;97398.22;;;5.41;61.96
36190;BME280;22232;50.914;13.858;2023-03-18T02:46:54;97401.47;;;5.43;61.14
36190;BME280;22232;50.914;13.858;2023-03-18T02:49:25;97397.03;;;5.37;61.08
36190;BME280;22232;50.914;13.858;2023-03-18T02:51:54;97397.00;;;5.44;60.50
36190;BME280;22232;50.914;13.858;2023-03-18T02:54:27;97395.34;;;5.56;58.21
36190;BME280;22232;50.914;13.858;2023-03-18T02:56:55;97404.28;;;5.62;58.85
36190;BME280;22232;50.914;13.858;2023-03-18T02:59:24;97410.34;;;5.69;58.16
36190;BME280;22232;50.914;13.858;2023-03-18T03:01:53;97422.59;;;5.63;58.46
36190;BME280;22232;50.914;13.858;2023-03-18T03:04:23;97423.41;;;5.64;57.92
36190;BME280;22232;50.914;13.858;2023-03-18T03:06:53;97426.66;;;5.59;59.33
36190;BME280;22232;50.914;13.858;2023-03-18T03:09:33;97427.50;;;5.53;58.70
36190;BME280;22232;50.914;13.858;2023-03-18T03:12:01;97429.72;;;5.56;59.12
36190;BME280;22232;50.914;13.858;2023-03-18T03:14:29;97424.03;;;5.59;58.59
36190;BME280;22232;50.914;13.858;2023-03-18T03:17:00;97433.00;;;5.58;58.99
36190;BME280;22232;50.914;13.858;2023-03-18T03:19:28;97438.50;;;5.50;59.92
36190;BME280;22232;50.914;13.858;2023-03-18T03:21:56;97441.94;;;5.50;59.21
36190;BME280;22232;50.914;13.858;2023-03-18T03:24:24;97447.47;;;5.42;59.75
36190;BME280;22232;50.914;13.858;2023-03-18T03:26:52;97446.25;;;5.38;60.39
36190;BME280;22232;50.914;13.858;2023-03-18T03:29:20;97445.03;;;5.41;59.64
36190;BME280;22232;50.914;13.858;2023-03-18T03:31:48;97448.28;;;5.43;60.27
36190;BME280;22232;50.914;13.858;2023-03-18T03:34:16;97453.16;;;5.46;60.50
36190;BME280;22232;50.914;13.858;2023-03-18T03:36:44;97451.72;;;5.50;60.47
36190;BME280;22232;50.914;13.858;2023-03-18T03:39:12;97457.25;;;5.42;61.48
36190;BME280;22232;50.914;13.858;2023-03-18T03:41:39;97456.41;;;5.35;62.05
36190;BME280;22232;50.914;13.858;2023-03-18T03:44:07;97459.47;;;5.32;64.19
36190;BME280;22232;50.914;13.858;2023-03-18T03:46:34;97453.59;;;5.16;66.27
36190;BME280;22232;50.914;13.858;2023-03-18T03:49:04;97460.91;;;5.14;67.18
36190;BME280;22232;50.914;13.858;2023-03-18T03:51:33;97470.50;;;5.15;65.02
36190;BME280;22232;50.914;13.858;2023-03-18T03:54:00;97467.81;;;5.02;66.55
36190;BME280;22232;50.914;13.858;2023-03-18T03:56:28;97462.13;;;5.05;66.74
36190;BME280;22232;50.914;13.858;2023-03-18T03:58:57;97471.72;;;5.06;65.88
36190;BME280;22232;50.914;13.858;2023-03-18T04:01:45;97473.94;;;5.02;65.43
36190;BME280;22232;50.914;13.858;2023-03-18T04:04:13;97472.53;;;5.00;65.96
36190;BME280;22232;50.914;13.858;2023-03-18T04:06:42;97485.13;;;4.98;66.67
36190;BME280;22232;50.914;13.858;2023-03-18T04:09:10;97474.16;;;4.94;67.69
36190;BME280;22232;50.914;13.858;2023-03-18T04:11:37;97479.22;;;4.89;68.62
36190;BME280;22232;50.914;13.858;2023-03-18T04:14:05;97476.16;;;4.92;68.30
36190;BME280;22232;50.914;13.858;2023-03-18T04:16:34;97483.91;;;4.87;68.05
36190;BME280;22232;50.914;13.858;2023-03-18T04:19:02;97484.91;;;4.79;67.59
36190;BME280;22232;50.914;13.858;2023-03-18T04:21:29;97478.22;;;4.90;66.84
36190;BME280;22232;50.914;13.858;2023-03-18T04:23:57;97486.94;;;4.84;67.57
36190;BME280;22232;50.914;13.858;2023-03-18T04:26:25;97490.19;;;4.73;69.15
36190;BME280;22232;50.914;13.858;2023-03-18T04:28:58;97491.41;;;4.70;67.92
36190;BME280;22232;50.914;13.858;2023-03-18T04:31:26;97501.16;;;4.70;70.54
36190;BME280;22232;50.914;13.858;2023-03-18T04:33:53;97490.97;;;4.67;69.02
36190;BME280;22232;50.914;13.858;2023-03-18T04:36:22;97495.88;;;4.70;68.91
36190;BME280;22232;50.914;13.858;2023-03-18T04:38:50;97495.88;;;4.76;67.80
36190;BME280;22232;50.914;13.858;2023-03-18T04:41:18;97490.59;;;4.70;67.91
36190;BME280;22232;50.914;13.858;2023-03-18T04:43:46;97495.88;;;4.70;68.27
36190;BME280;22232;50.914;13.858;2023-03-18T04:46:14;97492.03;;;4.72;68.79
36190;BME280;22232;50.914;13.858;2023-03-18T04:48:44;97505.41;;;4.71;68.00
36190;BME280;22232;50.914;13.858;2023-03-18T04:51:12;97503.56;;;4.71;68.15
36190;BME280;22232;50.914;13.858;2023-03-18T04:53:40;97508.88;;;4.71;66.43
36190;BME280;22232;50.914;13.858;2023-03-18T04:56:09;97505.22;;;4.72;67.36
36190;BME280;22232;50.914;13.858;2023-03-18T04:58:44;97510.28;;;4.67;67.76
36190;BME280;22232;50.914;13.858;2023-03-18T05:01:17;97503.38;;;4.66;67.40
36190;BME280;22232;50.914;13.858;2023-03-18T05:03:45;97505.00;;;4.67;66.52
36190;BME280;22232;50.914;13.858;2023-03-18T05:06:20;97503.19;;;4.74;67.26
36190;BME280;22232;50.914;13.858;2023-03-18T05:08:55;97497.88;;;4.74;66.64
36190;BME280;22232;50.914;13.858;2023-03-18T05:11:26;97511.94;;;4.75;67.09
36190;BME280;22232;50.914;13.858;2023-03-18T05:13:56;97515.34;;;4.62;67.48
36190;BME280;22232;50.914;13.858;2023-03-18T05:16:24;97507.41;;;4.62;68.23
36190;BME280;22232;50.914;13.858;2023-03-18T05:18:52;97504.41;;;4.72;67.15
36190;BME280;22232;50.914;13.858;2023-03-18T05:21:20;97501.56;;;4.73;67.78
36190;BME280;22232;50.914;13.858;2023-03-18T05:23:48;97503.00;;;4.76;66.64
36190;BME280;22232;50.914;13.858;2023-03-18T05:26:16;97510.09;;;4.75;66.80
36190;BME280;22232;50.914;13.858;2023-03-18T05:28:45;97503.78;;;4.76;67.60
36190;BME280;22232;50.914;13.858;2023-03-18T05:31:36;97505.00;;;4.80;67.49
36190;BME280;22232;50.914;13.858;2023-03-18T05:34:04;97503.81;;;4.83;67.86
36190;BME280;22232;50.914;13.858;2023-03-18T05:36:35;97508.09;;;4.84;66.56
36190;BME280;22232;50.914;13.858;2023-03-18T05:39:06;97509.09;;;4.90;67.18
36190;BME280;22232;50.914;13.858;2023-03-18T05:41:34;97513.78;;;4.94;68.00
36190;BME280;22232;50.914;13.858;2023-03-18T05:44:02;97508.09;;;5.04;66.43
36190;BME280;22232;50.914;13.858;2023-03-18T05:46:34;97516.03;;;5.11;65.54
36190;BME280;22232;50.914;13.858;2023-03-18T05:49:08;97516.03;;;5.04;66.33
36190;BME280;22232;50.914;13.858;2023-03-18T05:51:47;97522.75;;;5.06;67.74
36190;BME280;22232;50.914;13.858;2023-03-18T05:54:25;97525.97;;;5.02;70.19
36190;BME280;22232;50.914;13.858;2023-03-18T05:56:55;97528.84;;;4.94;70.68
36190;BME280;22232;50.914;13.858;2023-03-18T05:59:22;97530.03;;;4.91;71.35
36190;BME280;22232;50.914;13.858;2023-03-18T06:01:56;97529.25;;;5.04;67.88
36190;BME280;22232;50.914;13.858;2023-03-18T06:04:26;97521.94;;;5.06;70.02
36190;BME280;22232;50.914;13.858;2023-03-18T06:06:53;97531.88;;;4.91;67.81
36190;BME280;22232;50.914;13.858;2023-03-18T06:09:22;97537.56;;;5.01;68.85
36190;BME280;22232;50.914;13.858;2023-03-18T06:11:51;97524.75;;;5.11;68.73
36190;BME280;22232;50.914;13.858;2023-03-18T06:14:18;97528.84;;;5.07;67.34
36190;BME280;22232;50.914;13.858;2023-03-18T06:16:46;97519.06;;;5.14;66.35
36190;BME280;22232;50.914;13.858;2023-03-18T06:19:14;97522.75;;;5.26;68.75
36190;BME280;22232;50.914;13.858;2023-03-18T06:21:41;97520.31;;;5.18;68.12
36190;BME280;22232;50.914;13.858;2023-03-18T06:27:23;97532.53;;;5.33;67.00
36190;BME280;22232;50.914;13.858;2023-03-18T06:29:55;97530.06;;;5.38;66.44
36190;BME280;22232;50.914;13.858;2023-03-18T06:32:22;97527.19;;;5.79;65.41
36190;BME280;22232;50.914;13.858;2023-03-18T06:34:50;97534.03;;;6.13;61.35
36190;BME280;22232;50.914;13.858;2023-03-18T06:37:19;97534.75;;;6.40;59.89
36190;BME280;22232;50.914;13.858;2023-03-18T06:39:48;97533.09;;;6.46;58.47
36190;BME280;22232;50.914;13.858;2023-03-18T06:42:16;97537.75;;;6.51;58.31
36190;BME280;22232;50.914;13.858;2023-03-18T06:44:52;97537.50;;;6.59;58.36
36190;BME280;22232;50.914;13.858;2023-03-18T06:47:28;97536.75;;;6.52;59.06
36190;BME280;22232;50.914;13.858;2023-03-18T06:49:57;97535.09;;;6.51;60.22
36190;BME280;22232;50.914;13.858;2023-03-18T06:52:36;97537.22;;;6.74;59.78
36190;BME280;22232;50.914;13.858;2023-03-18T06:55:09;97534.72;;;6.85;57.62
36190;BME280;22232;50.914;13.858;2023-03-18T06:57:40;97541.00;;;6.91;57.93
36190;BME280;22232;50.914;13.858;2023-03-18T07:00:09;97548.97;;;6.91;57.49
36190;BME280;22232;50.914;13.858;2023-03-18T07:02:37;97544.75;;;7.08;57.02
36190;BME280;22232;50.914;13.858;2023-03-18T07:05:09;97526.38;;;6.82;57.69
36190;BME280;22232;50.914;13.858;2023-03-18T07:07:40;97542.09;;;6.77;57.79
36190;BME280;22232;50.914;13.858;2023-03-18T07:10:18;97544.19;;;7.00;57.83
36190;BME280;22232;50.914;13.858;2023-03-18T07:12:48;97547.94;;;6.92;58.35
36190;BME280;22232;50.914;13.858;2023-03-18T07:15:18;97549.38;;;7.20;58.26
36190;BME280;22232;50.914;13.858;2023-03-18T07:17:52;97541.41;;;7.20;56.99
36190;BME280;22232;50.914;13.858;2023-03-18T07:20:20;97552.97;;;7.32;57.01
36190;BME280;22232;50.914;13.858;2023-03-18T07:22:48;97543.25;;;7.69;56.58
36190;BME280;22232;50.914;13.858;2023-03-18T07:25:16;97552.78;;;7.77;55.79
36190;BME280;22232;50.914;13.858;2023-03-18T07:27:44;97549.88;;;8.03;55.37
36190;BME280;22232;50.914;13.858;2023-03-18T07:30:12;97543.53;;;8.41;54.94
36190;BME280;22232;50.914;13.858;2023-03-18T07:32:41;97549.78;;;8.65;54.58
36190;BME280;22232;50.914;13.858;2023-03-18T07:35:09;97549.00;;;9.07;53.92
36190;BME280;22232;50.914;13.858;2023-03-18T07:37:40;97547.00;;;9.32;51.70
36190;BME280;22232;50.914;13.858;2023-03-18T07:40:09;97535.53;;;9.32;51.75
36190;BME280;22232;50.914;13.858;2023-03-18T07:42:37;97538.69;;;9.40;51.87
36190;BME280;22232;50.914;13.858;2023-03-18T07:45:06;97542.63;;;9.50;51.23
36190;BME280;22232;50.914;13.858;2023-03-18T07:47:34;97542.34;;;10.10;50.65
36190;BME280;22232;50.914;13.858;2023-03-18T07:50:01;97533.09;;;10.13;50.53
36190;BME280;22232;50.914;13.858;2023-03-18T07:52:29;97537.41;;;10.66;49.29
36190;BME280;22232;50.914;13.858;2023-03-18T07:54:57;97534.53;;;11.46;48.29
36190;BME280;22232;50.914;13.858;2023-03-18T07:57:24;97546.34;;;11.34;48.04
36190;BME280;22232;50.914;13.858;2023-03-18T07:59:52;97544.25;;;11.53;48.07
36190;BME280;22232;50.914;13.858;2023-03-18T08:02:19;97546.69;;;11.54;48.13
36190;BME280;22232;50.914;13.858;2023-03-18T08:04:48;97539.53;;;11.09;46.72
36190;BME280;22232;50.914;13.858;2023-03-18T08:07:15;97544.81;;;10.92;48.55
36190;BME280;22232;50.914;13.858;2023-03-18T08:09:44;97538.41;;;10.76;49.03
36190;BME280;22232;50.914;13.858;2023-03-18T08:12:11;97542.69;;;10.77;49.49
36190;BME280;22232;50.914;13.858;2023-03-18T08:14:39;97541.09;;;10.65;50.09
36190;BME280;22232;50.914;13.858;2023-03-18T08:17:07;97533.94;;;10.65;49.56
36190;BME280;22232;50.914;13.858;2023-03-18T08:19:35;97542.06;;;10.87;50.29
36190;BME280;22232;50.914;13.858;2023-03-18T08:22:03;97543.16;;;11.03;50.58
36190;BME280;22232;50.914;13.858;2023-03-18T08:24:31;97548.22;;;10.88;48.80
36190;BME280;22232;50.914;13.858;2023-03-18T08:26:58;97552.59;;;10.94;50.00
36190;BME280;22232;50.914;13.858;2023-03-18T08:29:26;97555.97;;;10.89;49.49
36190;BME280;22232;50.914;13.858;2023-03-18T08:31:53;97552.97;;;10.86;50.45
36190;BME280;22232;50.914;13.858;2023-03-18T08:34:21;97544.13;;;10.97;50.64
36190;BME280;22232;50.914;13.858;2023-03-18T08:36:50;97552.69;;;11.44;50.23
36190;BME280;22232;50.914;13.858;2023-03-18T08:39:17;97549.91;;;11.56;49.03
36190;BME280;22232;50.914;13.858;2023-03-18T08:41:45;97550.50;;;11.41;48.24
36190;BME280;22232;50.914;13.858;2023-03-18T08:44:12;97544.34;;;11.58;48.67
36190;BME280;22232;50.914;13.858;2023-03-18T08:46:40;97551.31;;;11.42;47.51
36190;BME280;22232;50.914;13.858;2023-03-18T08:49:09;97551.38;;;11.47;48.53
36190;BME280;22232;50.914;13.858;2023-03-18T08:51:36;97548.47;;;11.99;48.55
36190;BME280;22232;50.914;13.858;2023-03-18T08:54:05;97550.50;;;12.14;47.44
36190;BME280;22232;50.914;13.858;2023-03-18T08:56:34;97545.34;;;12.07;46.84
36190;BME280;22232;50.914;13.858;2023-03-18T08:59:01;97554.84;;;11.98;47.17
36190;BME280;22232;50.914;13.858;2023-03-18T09:01:29;97548.03;;;12.07;46.32
36190;BME280;22232;50.914;13.858;2023-03-18T09:03:57;97549.88;;;12.24;46.45
36190;BME280;22232;50.914;13.858;2023-03-18T09:06:27;97552.69;;;12.17;47.04
36190;BME280;22232;50.914;13.858;2023-03-18T09:08:55;97554.56;;;12.16;46.38
36190;BME280;22232;50.914;13.858;2023-03-18T09:11:23;97555.63;;;12.15;46.57
36190;BME280;22232;50.914;13.858;2023-03-18T09:13:51;97561.09;;;12.92;47.05
36190;BME280;22232;50.914;13.858;2023-03-18T09:16:18;97563.69;;;12.81;45.68
36190;BME280;22232;50.914;13.858;2023-03-18T09:18:46;97564.47;;;12.82;45.94
36190;BME280;22232;50.914;13.858;2023-03-18T09:21:15;97568.34;;;13.18;45.33
36190;BME280;22232;50.914;13.858;2023-03-18T09:23:43;97563.72;;;13.14;45.46
36190;BME280;22232;50.914;13.858;2023-03-18T09:26:12;97568.91;;;12.71;45.52
36190;BME280;22232;50.914;13.858;2023-03-18T09:28:39;97567.63;;;13.01;46.78
36190;BME280;22232;50.914;13.858;2023-03-18T09:31:07;97557.63;;;12.91;45.82
36190;BME280;22232;50.914;13.858;2023-03-18T09:33:34;97562.34;;;13.33;45.79
36190;BME280;22232;50.914;13.858;2023-03-18T09:36:03;97556.72;;;13.35;45.97
36190;BME280;22232;50.914;13.858;2023-03-18T09:38:31;97570.53;;;13.53;45.85
36190;BME280;22232;50.914;13.858;2023-03-18T09:44:34;97561.13;;;13.46;45.80
36190;BME280;22232;50.914;13.858;2023-03-18T09:55:00;97559.94;;;13.64;45.91
36190;BME280;22232;50.914;13.858;2023-03-18T09:57:35;97553.78;;;14.11;46.13
36190;BME280;22232;50.914;13.858;2023-03-18T10:03:00;97550.59;;;14.66;45.53
36190;BME280;22232;50.914;13.858;2023-03-18T10:05:39;97553.63;;;14.28;44.65
36190;BME280;22232;50.914;13.858;2023-03-18T10:11:18;97554.63;;;14.16;44.41
36190;BME280;22232;50.914;13.858;2023-03-18T10:14:34;97556.53;;;14.16;44.81
36190;BME280;22232;50.914;13.858;2023-03-18T10:17:22;97553.81;;;14.63;44.14
36190;BME280;22232;50.914;13.858;2023-03-18T10:19:56;97554.38;;;14.76;45.18
36190;BME280;22232;50.914;13.858;2023-03-18T10:33:40;97564.94;;;14.35;46.12
36190;BME280;22232;50.914;13.858;2023-03-18T10:39:14;97571.53;;;14.17;45.72
36190;BME280;22232;50.914;13.858;2023-03-18T10:41:47;97561.59;;;14.12;47.32
36190;BME280;22232;50.914;13.858;2023-03-18T10:44:23;97571.72;;;14.00;46.59
36190;BME280;22232;50.914;13.858;2023-03-18T10:47:02;97565.09;;;14.18;48.63
36190;BME280;22232;50.914;13.858;2023-03-18T10:49:40;97563.34;;;13.96;47.01
36190;BME280;22232;50.914;13.858;2023-03-18T10:52:46;97567.13;;;13.63;47.27
36190;BME280;22232;50.914;13.858;2023-03-18T10:55:19;97560.72;;;14.02;47.38
36190;BME280;22232;50.914;13.858;2023-03-18T10:57:48;97570.78;;;13.84;46.30
36190;BME280;22232;50.914;13.858;2023-03-18T11:02:55;97575.00;;;13.75;47.77
36190;BME280;22232;50.914;13.858;2023-03-18T11:05:30;97576.53;;;13.66;47.72
36190;BME280;22232;50.914;13.858;2023-03-18T11:08:05;97562.41;;;14.18;48.33
36190;BME280;22232;50.914;13.858;2023-03-18T11:10:44;97562.50;;;13.53;47.07
36190;BME280;22232;50.914;13.858;2023-03-18T11:13:16;97565.28;;;13.64;49.91
36190;BME280;22232;50.914;13.858;2023-03-18T11:15:48;97565.91;;;13.76;47.98
36190;BME280;22232;50.914;13.858;2023-03-18T11:18:21;97577.16;;;13.73;49.03
36190;BME280;22232;50.914;13.858;2023-03-18T11:20:58;97579.72;;;13.58;48.33
36190;BME280;22232;50.914;13.858;2023-03-18T11:23:37;97579.69;;;13.03;48.20
36190;BME280;22232;50.914;13.858;2023-03-18T11:26:46;97580.50;;;13.04;50.02
36190;BME280;22232;50.914;13.858;2023-03-18T11:29:20;97578.22;;;12.91;50.58
36190;BME280;22232;50.914;13.858;2023-03-18T11:31:55;97578.63;;;13.04;50.58
36190;BME280;22232;50.914;13.858;2023-03-18T11:34:26;97576.06;;;12.88;50.82
36190;BME280;22232;50.914;13.858;2023-03-18T11:36:54;97579.22;;;12.62;52.19
36190;BME280;22232;50.914;13.858;2023-03-18T11:39:28;97579.09;;;12.74;53.01
36190;BME280;22232;50.914;13.858;2023-03-18T11:41:59;97589.09;;;12.84;51.83
36190;BME280;22232;50.914;13.858;2023-03-18T11:44:29;97578.59;;;12.77;52.91
36190;BME280;22232;50.914;13.858;2023-03-18T11:47:14;97580.22;;;12.78;51.91
36190;BME280;22232;50.914;13.858;2023-03-18T11:49:45;97583.69;;;12.35;53.10
36190;BME280;22232;50.914;13.858;2023-03-18T11:58:29;97575.69;;;12.57;54.52
36190;BME280;22232;50.914;13.858;2023-03-18T12:01:17;97588.66;;;12.92;55.72
36190;BME280;22232;50.914;13.858;2023-03-18T12:04:29;97581.03;;;13.28;53.05
36190;BME280;22232;50.914;13.858;2023-03-18T12:07:10;97578.03;;;13.24;51.99
36190;BME280;22232;50.914;13.858;2023-03-18T12:09:54;97581.75;;;12.96;51.39
36190;BME280;22232;50.914;13.858;2023-03-18T12:17:47;97578.31;;;13.01;51.34
36190;BME280;22232;50.914;13.858;2023-03-18T12:20:47;97580.19;;;13.00;51.01
36190;BME280;22232;50.914;13.858;2023-03-18T12:23:32;97583.53;;;13.13;51.01
36190;BME280;22232;50.914;13.858;2023-03-18T12:31:56;97572.94;;;13.87;50.74
36190;BME280;22232;50.914;13.858;2023-03-18T12:37:46;97570.81;;;13.89;49.20
36190;BME280;22232;50.914;13.858;2023-03-18T12:45:56;97575.09;;;13.53;52.64
36190;BME280;22232;50.914;13.858;2023-03-18T12:48:32;97578.59;;;13.86;51.84
36190;BME280;22232;50.914;13.858;2023-03-18T12:51:21;97567.22;;;13.73;51.53
36190;BME280;22232;50.914;13.858;2023-03-18T12:53:54;97569.28;;;13.61;51.82
36190;BME280;22232;50.914;13.858;2023-03-18T12:56:26;97574.38;;;13.63;52.45
36190;BME280;22232;50.914;13.858;2023-03-18T12:59:06;97578.06;;;13.57;52.12
36190;BME280;22232;50.914;13.858;2023-03-18T13:01:52;97567.19;;;13.68;53.79
36190;BME280;22232;50.914;13.858;2023-03-18T13:04:29;97572.50;;;13.31;51.54
36190;BME280;22232;50.914;13.858;2023-03-18T13:07:09;97571.47;;;13.69;55.56
36190;BME280;22232;50.914;13.858;2023-03-18T13:09:46;97570.59;;;13.59;53.47
36190;BME280;22232;50.914;13.858;2023-03-18T13:12:35;97567.00;;;13.80;50.70
36190;BME280;22232;50.914;13.858;2023-03-18T13:15:14;97575.66;;;13.55;51.51
36190;BME280;22232;50.914;13.858;2023-03-18T13:17:44;97566.78;;;13.49;53.46
36190;BME280;22232;50.914;13.858;2023-03-18T13:20:20;97572.03;;;13.71;53.38
36190;BME280;22232;50.914;13.858;2023-03-18T13:23:09;97573.34;;;13.37;51.17
36190;BME280;22232;50.914;13.858;2023-03-18T13:28:49;97574.13;;;13.64;54.02
36190;BME280;22232;50.914;13.858;2023-03-18T13:42:46;97562.13;;;13.40;54.95
36190;BME280;22232;50.914;13.858;2023-03-18T13:45:31;97553.59;;;13.43;55.47
36190;BME280;22232;50.914;13.858;2023-03-18T13:48:04;97554.03;;;13.07;56.25
36190;BME280;22232;50.914;13.858;2023-03-18T13:50:44;97546.94;;;13.23;57.09
36190;BME280;22232;50.914;13.858;2023-03-18T13:53:37;97553.47;;;13.05;56.70
36190;BME280;22232;50.914;13.858;2023-03-18T14:02:26;97543.03;;;13.04;56.24
36190;BME280;22232;50.914;13.858;2023-03-18T14:04:57;97543.66;;;12.89;57.20
36190;BME280;22232;50.914;13.858;2023-03-18T14:07:26;97545.75;;;12.82;56.39
36190;BME280;22232;50.914;13.858;2023-03-18T14:12:45;97535.25;;;12.75;57.84
36190;BME280;22232;50.914;13.858;2023-03-18T14:17:54;97542.88;;;12.89;58.50
36190;BME280;22232;50.914;13.858;2023-03-18T14:20:27;97535.78;;;13.04;58.91
36190;BME280;22232;50.914;13.858;2023-03-18T14:23:30;97532.25;;;12.99;58.48
36190;BME280;22232;50.914;13.858;2023-03-18T14:26:23;97525.00;;;12.94;59.50
36190;BME280;22232;50.914;13.858;2023-03-18T14:39:34;97522.84;;;12.96;59.68
36190;BME280;22232;50.914;13.858;2023-03-18T14:45:01;97531.16;;;12.95;60.30
36190;BME280;22232;50.914;13.858;2023-03-18T14:47:51;97525.13;;;12.82;59.68
36190;BME280;22232;50.914;13.858;2023-03-18T14:50:38;97531.34;;;12.88;61.81
36190;BME280;22232;50.914;13.858;2023-03-18T14:55:47;97527.69;;;12.99;61.28
36190;BME280;22232;50.914;13.858;2023-03-18T14:58:19;97531.88;;;13.12;61.51
36190;BME280;22232;50.914;13.858;2023-03-18T15:00:50;97524.41;;;13.19;61.77
36190;BME280;22232;50.914;13.858;2023-03-18T15:03:24;97523.03;;;13.12;62.91
36190;BME280;22232;50.914;13.858;2023-03-18T15:05:56;97525.19;;;12.88;61.64
36190;BME280;22232;50.914;13.858;2023-03-18T15:08:28;97522.69;;;13.08;61.68